createdAt,value
2018-12-21T00:01:09.660Z,6.30
2018-12-21T00:03:37.237Z,6.30
2018-12-21T00:06:04.810Z,6.20
2018-12-21T00:08:32.370Z,6.30
2018-12-21T00:10:59.830Z,6.20
2018-12-21T00:13:27.374Z,6.20
2018-12-21T00:15:54.943Z,6.20
2018-12-21T00:18:22.432Z,6.10
2018-12-21T00:20:49.897Z,6.00
2018-12-21T00:23:17.398Z,6.00
2018-12-21T00:25:44.866Z,6.00
2018-12-21T00:28:12.451Z,5.90
2018-12-21T00:30:39.562Z,5.80
2018-12-21T00:33:12.557Z,5.80
2018-12-21T00:35:45.748Z,5.80
2018-12-21T00:38:18.966Z,5.70
2018-12-21T00:40:52.217Z,5.60
2018-12-21T00:43:24.557Z,5.70
2018-12-21T00:45:53.948Z,5.70
2018-12-21T00:48:21.489Z,5.60
2018-12-21T00:50:48.951Z,5.60
2018-12-21T00:53:16.427Z,5.60
2018-12-21T00:55:43.879Z,5.60
2018-12-21T00:58:11.436Z,5.50
2018-12-21T01:00:38.985Z,5.60
2018-12-21T01:03:06.890Z,5.60
2018-12-21T01:05:34.558Z,5.60
2018-12-21T01:08:02.049Z,5.50
2018-12-21T01:10:29.525Z,5.60
2018-12-21T01:12:57.102Z,5.60
2018-12-21T01:15:24.561Z,5.60
2018-12-21T01:17:52.124Z,5.60
2018-12-21T01:20:19.678Z,5.60
2018-12-21T01:22:47.272Z,5.60
2018-12-21T01:25:14.750Z,5.60
2018-12-21T01:27:42.228Z,5.60
2018-12-21T01:30:09.758Z,5.60
2018-12-21T01:32:37.301Z,5.60
2018-12-21T01:35:04.986Z,5.60
2018-12-21T01:37:32.521Z,5.60
2018-12-21T01:40:00.021Z,5.60
2018-12-21T01:42:27.485Z,5.60
2018-12-21T01:44:54.971Z,5.60
2018-12-21T01:47:22.452Z,5.60
2018-12-21T01:49:50.010Z,5.60
2018-12-21T01:52:17.502Z,5.60
2018-12-21T01:54:44.974Z,5.60
2018-12-21T01:57:12.501Z,5.60
2018-12-21T01:59:40.146Z,5.60
2018-12-21T02:02:07.612Z,5.70
2018-12-21T02:04:35.161Z,5.70
2018-12-21T02:07:02.715Z,5.70
2018-12-21T02:09:30.208Z,5.70
2018-12-21T02:11:57.684Z,5.80
2018-12-21T02:14:25.174Z,5.80
2018-12-21T02:16:52.698Z,5.70
2018-12-21T02:19:20.236Z,5.70
2018-12-21T02:21:55.668Z,5.80
2018-12-21T02:24:17.380Z,5.80
2018-12-21T02:26:44.870Z,5.80
2018-12-21T02:29:12.450Z,5.80
2018-12-21T02:31:39.982Z,5.80
2018-12-21T02:34:07.551Z,5.80
2018-12-21T02:36:35.032Z,5.80
2018-12-21T02:39:02.541Z,5.80
2018-12-21T02:41:30.030Z,5.80
2018-12-21T02:43:57.593Z,5.80
2018-12-21T02:46:25.072Z,5.80
2018-12-21T02:48:52.614Z,5.80
2018-12-21T02:51:20.174Z,5.80
2018-12-21T02:53:47.731Z,5.80
2018-12-21T02:56:15.292Z,5.80
2018-12-21T02:58:42.763Z,5.70
2018-12-21T03:01:10.314Z,5.70
2018-12-21T03:03:37.887Z,5.70
2018-12-21T03:06:05.433Z,5.70
2018-12-21T03:08:33.362Z,5.70
2018-12-21T03:11:00.964Z,5.80
2018-12-21T03:13:28.445Z,5.80
2018-12-21T03:15:55.990Z,5.90
2018-12-21T03:18:23.539Z,5.90
2018-12-21T03:20:51.028Z,5.90
2018-12-21T03:23:18.490Z,5.90
2018-12-21T03:25:45.989Z,5.90
2018-12-21T03:28:13.484Z,5.90
2018-12-21T03:30:40.974Z,5.90
2018-12-21T03:33:08.605Z,6.00
2018-12-21T03:35:36.105Z,6.00
2018-12-21T03:38:03.591Z,6.10
2018-12-21T03:40:31.140Z,6.10
2018-12-21T03:42:58.613Z,6.00
2018-12-21T03:45:26.136Z,6.00
2018-12-21T03:47:53.632Z,5.90
2018-12-21T03:50:21.123Z,5.90
2018-12-21T03:52:48.586Z,5.90
2018-12-21T03:55:16.151Z,5.90
2018-12-21T03:57:43.634Z,6.00
2018-12-21T04:00:11.106Z,5.90
2018-12-21T04:02:38.585Z,5.90
2018-12-21T04:05:06.076Z,6.00
2018-12-21T04:07:33.542Z,6.00
2018-12-21T04:10:01.096Z,6.10
2018-12-21T04:12:28.593Z,6.10
2018-12-21T04:14:56.124Z,6.10
2018-12-21T04:17:23.684Z,6.10
2018-12-21T04:19:51.166Z,6.10
2018-12-21T04:22:18.671Z,6.20
2018-12-21T04:24:46.147Z,6.20
2018-12-21T04:27:13.644Z,6.10
2018-12-21T04:29:41.207Z,3.90
2018-12-21T04:32:08.734Z,6.10
2018-12-21T04:34:36.206Z,6.10
2018-12-21T04:37:03.700Z,6.10
2018-12-21T04:39:31.209Z,6.10
2018-12-21T04:41:58.757Z,6.10
2018-12-21T04:44:26.230Z,6.10
2018-12-21T04:46:53.816Z,6.00
2018-12-21T04:49:21.311Z,6.10
2018-12-21T04:51:48.807Z,6.10
2018-12-21T04:54:16.366Z,6.10
2018-12-21T04:56:43.856Z,6.10
2018-12-21T04:59:11.420Z,6.20
2018-12-21T05:01:38.914Z,6.10
2018-12-21T05:04:06.441Z,6.00
2018-12-21T05:06:33.923Z,6.10
2018-12-21T05:09:01.431Z,6.10
2018-12-21T05:11:28.992Z,6.20
2018-12-21T05:13:56.544Z,6.20
2018-12-21T05:16:24.007Z,6.20
2018-12-21T05:18:51.483Z,6.10
2018-12-21T05:21:19.047Z,6.00
2018-12-21T05:23:46.561Z,6.10
2018-12-21T05:26:14.058Z,6.10
2018-12-21T05:28:41.545Z,6.10
2018-12-21T05:31:09.057Z,6.10
2018-12-21T05:33:36.591Z,6.10
2018-12-21T05:36:04.117Z,6.10
2018-12-21T05:38:31.808Z,6.10
2018-12-21T05:41:00.741Z,6.20
2018-12-21T05:43:28.606Z,6.20
2018-12-21T05:45:56.096Z,6.20
2018-12-21T05:48:24.139Z,6.20
2018-12-21T05:50:51.713Z,6.20
2018-12-21T05:53:19.189Z,6.10
2018-12-21T05:55:46.696Z,6.10
2018-12-21T05:58:14.230Z,6.20
2018-12-21T06:00:41.743Z,6.20
2018-12-21T06:03:09.762Z,6.20
2018-12-21T06:05:38.229Z,6.20
2018-12-21T06:08:05.762Z,6.20
2018-12-21T06:10:33.320Z,6.20
2018-12-21T06:13:00.814Z,6.20
2018-12-21T06:15:28.305Z,6.10
2018-12-21T06:17:55.793Z,6.20
2018-12-21T06:20:23.362Z,6.20
2018-12-21T06:22:50.951Z,6.20
2018-12-21T06:25:18.451Z,6.20
2018-12-21T06:27:46.002Z,6.20
2018-12-21T06:30:13.700Z,6.20
2018-12-21T06:32:41.184Z,6.20
2018-12-21T06:35:08.678Z,6.20
2018-12-21T06:37:36.154Z,6.20
2018-12-21T06:40:04.546Z,6.20
2018-12-21T06:42:32.130Z,6.20
2018-12-21T06:44:59.699Z,6.20
2018-12-21T06:47:27.257Z,6.20
2018-12-21T06:49:54.817Z,6.30
2018-12-21T06:52:22.293Z,6.30
2018-12-21T06:54:49.790Z,6.20
2018-12-21T06:57:17.311Z,6.20
2018-12-21T06:59:44.870Z,6.20
2018-12-21T07:02:12.389Z,6.20
2018-12-21T07:04:39.866Z,6.20
2018-12-21T07:07:07.428Z,6.20
2018-12-21T07:09:34.917Z,6.20
2018-12-21T07:12:02.453Z,6.20
2018-12-21T07:14:29.977Z,6.20
2018-12-21T07:16:57.473Z,6.20
2018-12-21T07:19:24.969Z,6.20
2018-12-21T07:21:52.444Z,6.20
2018-12-21T07:24:19.963Z,6.20
2018-12-21T07:26:47.556Z,6.20
2018-12-21T07:29:15.099Z,6.30
2018-12-21T07:31:42.589Z,6.30
2018-12-21T07:34:10.069Z,6.20
2018-12-21T07:36:37.665Z,6.20
2018-12-21T07:39:07.259Z,6.20
2018-12-21T07:41:34.763Z,6.20
2018-12-21T07:44:02.233Z,6.30
2018-12-21T07:46:29.729Z,6.20
2018-12-21T07:48:57.370Z,6.20
2018-12-21T07:51:24.963Z,6.20
2018-12-21T07:53:52.424Z,6.20
2018-12-21T07:56:19.984Z,6.20
2018-12-21T07:58:47.470Z,6.20
2018-12-21T08:01:14.956Z,6.30
2018-12-21T08:03:42.468Z,6.30
2018-12-21T08:06:10.021Z,6.30
2018-12-21T08:08:37.532Z,6.20
2018-12-21T08:11:05.007Z,6.30
2018-12-21T08:13:32.498Z,6.20
2018-12-21T08:16:00.010Z,6.30
2018-12-21T08:18:27.499Z,6.30
2018-12-21T08:20:55.051Z,6.30
2018-12-21T08:23:22.566Z,6.40
2018-12-21T08:25:50.037Z,6.30
2018-12-21T08:28:17.580Z,6.30
2018-12-21T08:30:45.398Z,6.30
2018-12-21T08:33:12.889Z,6.30
2018-12-21T08:35:40.453Z,6.30
2018-12-21T08:38:07.944Z,6.40
2018-12-21T08:40:35.466Z,6.30
2018-12-21T08:43:03.032Z,6.30
2018-12-21T08:45:30.507Z,6.30
2018-12-21T08:47:57.972Z,6.40
2018-12-21T08:50:25.432Z,6.40
2018-12-21T08:52:52.988Z,6.40
2018-12-21T08:55:20.457Z,6.30
2018-12-21T08:57:47.940Z,6.30
2018-12-21T09:00:15.414Z,6.40
2018-12-21T09:02:42.982Z,6.40
2018-12-21T09:05:10.470Z,6.40
2018-12-21T09:07:37.972Z,6.40
2018-12-21T09:10:07.358Z,6.30
2018-12-21T09:12:35.005Z,6.30
2018-12-21T09:15:02.581Z,6.40
2018-12-21T09:17:30.050Z,6.40
2018-12-21T09:19:57.661Z,6.40
2018-12-21T09:22:25.162Z,6.40
2018-12-21T09:24:52.662Z,6.50
2018-12-21T09:27:20.166Z,6.50
2018-12-21T09:29:47.724Z,6.50
2018-12-21T09:32:15.199Z,6.50
2018-12-21T09:34:42.736Z,6.60
2018-12-21T09:37:10.222Z,6.50
2018-12-21T09:39:37.720Z,6.60
2018-12-21T09:42:05.240Z,6.60
2018-12-21T09:44:32.731Z,6.60
2018-12-21T09:47:00.330Z,6.70
2018-12-21T09:49:27.804Z,6.70
2018-12-21T09:51:55.270Z,6.70
2018-12-21T09:54:22.760Z,6.70
2018-12-21T09:56:50.283Z,6.80
2018-12-21T09:59:17.773Z,6.80
2018-12-21T10:01:45.267Z,6.80
2018-12-21T10:04:12.844Z,6.90
2018-12-21T10:06:40.317Z,6.90
2018-12-21T10:09:07.808Z,6.90
2018-12-21T10:11:35.290Z,6.90
2018-12-21T10:14:02.889Z,7.00
2018-12-21T10:16:30.363Z,7.00
2018-12-21T10:18:57.861Z,7.10
2018-12-21T10:21:25.341Z,7.10
2018-12-21T10:23:52.904Z,7.10
2018-12-21T10:26:20.383Z,7.20
2018-12-21T10:28:47.852Z,7.20
2018-12-21T10:31:15.431Z,7.20
2018-12-21T10:33:42.966Z,7.20
2018-12-21T10:36:10.464Z,7.20
2018-12-21T10:38:37.954Z,7.20
2018-12-21T10:41:05.458Z,7.20
2018-12-21T10:43:32.934Z,7.20
2018-12-21T10:46:00.455Z,7.20
2018-12-21T10:48:28.119Z,7.20
2018-12-21T10:50:55.652Z,7.20
2018-12-21T10:53:23.142Z,7.20
2018-12-21T10:55:50.681Z,7.30
2018-12-21T10:58:18.201Z,7.30
2018-12-21T11:00:45.799Z,7.30
2018-12-21T11:03:13.299Z,7.30
2018-12-21T11:05:40.876Z,7.40
2018-12-21T11:08:08.337Z,7.40
2018-12-21T11:10:36.686Z,7.40
2018-12-21T11:13:04.246Z,7.40
2018-12-21T11:15:31.739Z,7.40
2018-12-21T11:17:59.214Z,7.40
2018-12-21T11:20:26.724Z,7.40
2018-12-21T11:22:54.221Z,7.40
2018-12-21T11:25:21.735Z,7.40
2018-12-21T11:27:49.217Z,7.40
2018-12-21T11:30:16.773Z,7.40
2018-12-21T11:32:44.318Z,7.40
2018-12-21T11:35:11.897Z,7.40
2018-12-21T11:37:39.484Z,7.40
2018-12-21T11:40:06.950Z,7.40
2018-12-21T11:42:34.473Z,7.40
2018-12-21T11:45:02.058Z,7.40
2018-12-21T11:47:29.553Z,7.50
2018-12-21T11:49:57.038Z,7.50
2018-12-21T11:52:24.609Z,7.50
2018-12-21T11:54:52.072Z,7.40
2018-12-21T11:57:19.540Z,7.40
2018-12-21T11:59:47.093Z,7.50
2018-12-21T12:02:19.548Z,7.40
2018-12-21T12:04:44.059Z,7.50
2018-12-21T12:07:11.544Z,7.40
2018-12-21T12:09:39.039Z,7.40
2018-12-21T12:12:06.541Z,7.40
2018-12-21T12:14:34.024Z,7.50
2018-12-21T12:17:01.517Z,7.40
2018-12-21T12:19:29.012Z,7.40
2018-12-21T12:21:56.497Z,7.30
2018-12-21T12:24:23.982Z,7.40
2018-12-21T12:26:51.511Z,7.40
2018-12-21T12:29:19.012Z,7.40
2018-12-21T12:31:46.487Z,7.40
2018-12-21T12:34:13.990Z,7.30
2018-12-21T12:36:41.819Z,7.40
2018-12-21T12:39:09.399Z,7.30
2018-12-21T12:41:36.894Z,7.30
2018-12-21T12:44:04.425Z,7.20
2018-12-21T12:46:31.889Z,7.30
2018-12-21T12:48:59.381Z,7.30
2018-12-21T12:51:26.927Z,7.30
2018-12-21T12:53:54.465Z,7.30
2018-12-21T12:56:21.921Z,7.30
2018-12-21T12:58:49.473Z,7.20
2018-12-21T13:01:16.955Z,7.20
2018-12-21T13:03:44.446Z,7.20
2018-12-21T13:06:12.890Z,7.20
2018-12-21T13:08:40.382Z,7.10
2018-12-21T13:11:07.865Z,7.10
2018-12-21T13:13:35.476Z,7.00
2018-12-21T13:16:02.976Z,7.00
2018-12-21T13:18:30.461Z,7.00
2018-12-21T13:20:58.066Z,7.00
2018-12-21T13:23:25.600Z,7.00
2018-12-21T13:25:53.255Z,7.00
2018-12-21T13:28:20.744Z,7.00
2018-12-21T13:30:48.235Z,7.00
2018-12-21T13:33:15.740Z,7.00
2018-12-21T13:35:43.213Z,7.00
2018-12-21T13:38:10.712Z,7.00
2018-12-21T13:40:38.240Z,7.00
2018-12-21T13:43:05.742Z,6.90
2018-12-21T13:45:33.249Z,6.90
2018-12-21T13:48:00.725Z,7.00
2018-12-21T13:50:28.212Z,7.00
2018-12-21T13:52:55.685Z,7.00
2018-12-21T13:55:23.423Z,7.00
2018-12-21T13:57:50.954Z,7.00
2018-12-21T14:00:18.451Z,6.90
2018-12-21T14:02:45.966Z,7.00
2018-12-21T14:05:13.473Z,7.00
2018-12-21T14:07:40.973Z,6.90
2018-12-21T14:10:09.965Z,6.90
2018-12-21T14:12:37.438Z,6.90
2018-12-21T14:15:05.643Z,6.90
2018-12-21T14:17:33.161Z,6.90
2018-12-21T14:20:00.659Z,6.90
2018-12-21T14:22:28.243Z,6.90
2018-12-21T14:24:55.870Z,6.90
2018-12-21T14:27:23.343Z,6.90
2018-12-21T14:29:50.833Z,6.90
2018-12-21T14:32:18.310Z,6.90
2018-12-21T14:34:45.811Z,6.80
2018-12-21T14:37:13.297Z,6.90
2018-12-21T14:39:40.787Z,6.90
2018-12-21T14:42:08.278Z,6.90
2018-12-21T14:44:35.767Z,6.80
2018-12-21T14:47:03.243Z,6.80
2018-12-21T14:49:30.720Z,6.80
2018-12-21T14:51:58.293Z,6.70
2018-12-21T14:54:25.767Z,6.70
2018-12-21T14:56:53.253Z,6.70
2018-12-21T14:59:20.764Z,6.70
2018-12-21T15:01:48.250Z,6.70
2018-12-21T15:04:16.866Z,6.70
2018-12-21T15:06:44.393Z,6.70
2018-12-21T15:09:11.983Z,6.70
2018-12-21T15:11:39.473Z,6.70
2018-12-21T15:14:06.961Z,6.70
2018-12-21T15:16:34.440Z,6.70
2018-12-21T15:19:01.924Z,6.70
2018-12-21T15:21:29.464Z,6.70
2018-12-21T15:23:57.048Z,6.70
2018-12-21T15:26:24.579Z,6.70
2018-12-21T15:28:52.061Z,6.70
2018-12-21T15:31:19.549Z,6.70
2018-12-21T15:33:47.021Z,6.70
2018-12-21T15:36:14.615Z,6.70
2018-12-21T15:38:42.085Z,6.70
2018-12-21T15:41:09.568Z,6.70
2018-12-21T15:43:37.102Z,6.70
2018-12-21T15:46:04.696Z,6.80
2018-12-21T15:48:32.164Z,6.80
2018-12-21T15:50:59.681Z,6.80
2018-12-21T15:53:27.143Z,6.80
2018-12-21T15:55:55.140Z,6.80
2018-12-21T15:58:22.744Z,6.80
2018-12-21T16:00:50.237Z,6.80
2018-12-21T16:03:17.749Z,6.80
2018-12-21T16:05:45.253Z,6.80
2018-12-21T16:08:12.773Z,6.70
2018-12-21T16:10:40.353Z,6.80
2018-12-21T16:13:07.932Z,6.80
2018-12-21T16:15:35.489Z,6.80
2018-12-21T16:18:02.982Z,6.80
2018-12-21T16:20:30.517Z,6.80
2018-12-21T16:22:57.994Z,6.80
2018-12-21T16:25:25.494Z,6.80
2018-12-21T16:27:52.986Z,6.80
2018-12-21T16:30:20.490Z,6.80
2018-12-21T16:32:48.016Z,6.80
2018-12-21T16:35:15.490Z,6.90
2018-12-21T16:37:43.036Z,6.90
2018-12-21T16:40:10.577Z,6.80
2018-12-21T16:42:38.087Z,6.90
2018-12-21T16:45:08.169Z,6.90
2018-12-21T16:47:35.968Z,6.90
2018-12-21T16:50:06.562Z,6.90
2018-12-21T16:52:37.154Z,6.90
2018-12-21T16:55:06.765Z,6.90
2018-12-21T16:57:34.318Z,6.90
2018-12-21T17:00:01.802Z,6.90
2018-12-21T17:02:29.328Z,6.90
2018-12-21T17:04:56.821Z,6.90
2018-12-21T17:07:24.427Z,6.90
2018-12-21T17:09:51.971Z,6.90
2018-12-21T17:12:19.469Z,6.90
2018-12-21T17:14:47.149Z,6.90
2018-12-21T17:17:14.650Z,6.90
2018-12-21T17:19:42.139Z,7.00
2018-12-21T17:22:09.670Z,7.00
2018-12-21T17:24:37.255Z,7.00
2018-12-21T17:27:04.744Z,7.00
2018-12-21T17:29:32.400Z,7.00
2018-12-21T17:32:02.118Z,7.00
2018-12-21T17:34:29.584Z,7.00
2018-12-21T17:36:57.073Z,7.00
2018-12-21T17:39:25.662Z,7.00
2018-12-21T17:41:53.150Z,7.00
2018-12-21T17:44:20.648Z,7.10
2018-12-21T17:46:48.125Z,7.00
2018-12-21T17:49:15.625Z,7.00
2018-12-21T17:51:43.159Z,7.00
2018-12-21T17:54:10.633Z,7.00
2018-12-21T17:56:38.094Z,7.00
2018-12-21T17:59:05.609Z,7.00
2018-12-21T18:01:33.283Z,7.10
2018-12-21T18:04:01.253Z,7.00
2018-12-21T18:06:28.790Z,7.10
2018-12-21T18:08:56.304Z,7.10
2018-12-21T18:11:23.795Z,7.10
2018-12-21T18:13:51.336Z,7.20
2018-12-21T18:16:20.812Z,7.20
2018-12-21T18:18:48.401Z,7.20
2018-12-21T18:21:15.877Z,7.20
2018-12-21T18:23:43.371Z,7.30
2018-12-21T18:26:10.871Z,6.70
2018-12-21T18:28:38.431Z,7.40
2018-12-21T18:31:09.205Z,7.40
2018-12-21T18:33:36.933Z,7.40
2018-12-21T18:36:04.407Z,7.50
2018-12-21T18:38:31.909Z,7.60
2018-12-21T18:40:59.419Z,7.70
2018-12-21T18:43:26.915Z,7.80
2018-12-21T18:45:54.401Z,7.90
2018-12-21T18:48:21.985Z,8.00
2018-12-21T18:50:49.475Z,8.00
2018-12-21T18:53:16.969Z,8.00
2018-12-21T18:55:45.550Z,8.10
2018-12-21T18:58:13.027Z,8.10
2018-12-21T19:00:40.489Z,8.20
2018-12-21T19:03:08.083Z,8.20
2018-12-21T19:05:35.613Z,8.20
2018-12-21T19:08:03.080Z,8.30
2018-12-21T19:10:30.653Z,8.40
2018-12-21T19:12:58.222Z,8.40
2018-12-21T19:15:25.816Z,8.50
2018-12-21T19:17:53.431Z,8.50
2018-12-21T19:20:20.911Z,8.60
2018-12-21T19:22:48.401Z,8.60
2018-12-21T19:25:15.917Z,8.70
2018-12-21T19:27:43.428Z,8.70
2018-12-21T19:30:10.963Z,8.80
2018-12-21T19:32:38.506Z,8.90
2018-12-21T19:35:07.187Z,8.90
2018-12-21T19:37:34.677Z,9.10
2018-12-21T19:40:02.431Z,9.10
2018-12-21T19:42:29.995Z,9.10
2018-12-21T19:44:57.461Z,9.20
2018-12-21T19:47:24.920Z,9.20
2018-12-21T19:49:52.395Z,9.20
2018-12-21T19:52:19.904Z,9.20
2018-12-21T19:54:48.583Z,9.20
2018-12-21T19:57:16.069Z,9.30
2018-12-21T19:59:43.572Z,9.30
2018-12-21T20:02:11.071Z,9.20
2018-12-21T20:04:38.551Z,9.20
2018-12-21T20:07:06.093Z,9.20
2018-12-21T20:09:33.579Z,9.30
2018-12-21T20:12:01.134Z,9.30
2018-12-21T20:14:28.682Z,9.30
2018-12-21T20:16:56.232Z,9.30
2018-12-21T20:19:24.606Z,9.30
2018-12-21T20:21:53.398Z,9.30
2018-12-21T20:24:23.120Z,9.30
2018-12-21T20:26:50.487Z,9.30
2018-12-21T20:29:18.585Z,9.20
2018-12-21T20:31:46.424Z,9.30
2018-12-21T20:34:13.967Z,9.40
2018-12-21T20:36:41.542Z,9.40
2018-12-21T20:39:10.784Z,9.50
2018-12-21T20:41:38.288Z,9.70
2018-12-21T20:44:05.856Z,9.80
2018-12-21T20:46:33.416Z,9.80
2018-12-21T20:49:00.977Z,9.80
2018-12-21T20:51:28.489Z,9.80
2018-12-21T20:53:55.984Z,9.80
2018-12-21T20:56:23.558Z,9.80
2018-12-21T20:58:51.237Z,9.80
2018-12-21T21:01:18.742Z,9.90
2018-12-21T21:03:46.258Z,9.90
2018-12-21T21:06:13.753Z,10.00
2018-12-21T21:08:41.228Z,9.90
2018-12-21T21:11:08.734Z,10.00
2018-12-21T21:13:36.215Z,10.00
2018-12-21T21:16:03.751Z,10.00
2018-12-21T21:18:31.293Z,10.10
2018-12-21T21:20:58.861Z,10.10
2018-12-21T21:23:26.420Z,10.20
2018-12-21T21:25:53.977Z,10.20
2018-12-21T21:28:21.476Z,10.20
2018-12-21T21:30:48.968Z,10.30
2018-12-21T21:33:16.454Z,10.30
2018-12-21T21:35:44.006Z,10.30
2018-12-21T21:38:11.492Z,10.40
2018-12-21T21:40:39.134Z,10.40
2018-12-21T21:43:07.428Z,10.50
2018-12-21T21:45:34.926Z,10.50
2018-12-21T21:48:02.430Z,10.60
2018-12-21T21:50:29.910Z,10.60
2018-12-21T21:52:57.398Z,10.70
2018-12-21T21:55:24.876Z,10.70
2018-12-21T21:57:52.372Z,10.70
2018-12-21T22:00:19.935Z,10.60
2018-12-21T22:02:47.509Z,10.60
2018-12-21T22:05:15.197Z,10.60
2018-12-21T22:07:42.706Z,10.60
2018-12-21T22:10:10.185Z,10.60
2018-12-21T22:12:37.775Z,10.60
2018-12-21T22:15:06.456Z,10.60
2018-12-21T22:17:33.967Z,10.60
2018-12-21T22:20:01.444Z,10.60
2018-12-21T22:22:28.979Z,10.60
2018-12-21T22:24:56.457Z,10.60
2018-12-21T22:27:23.957Z,10.60
2018-12-21T22:29:51.502Z,10.50
2018-12-21T22:32:19.011Z,10.40
2018-12-21T22:34:46.501Z,10.40
2018-12-21T22:37:13.969Z,10.30
2018-12-21T22:39:41.458Z,10.30
2018-12-21T22:42:08.945Z,10.20
2018-12-21T22:44:36.470Z,10.10
2018-12-21T22:47:03.971Z,10.00
2018-12-21T22:49:31.462Z,10.00
2018-12-21T22:51:58.945Z,10.10
2018-12-21T22:54:26.480Z,9.90
2018-12-21T22:56:54.058Z,9.90
2018-12-21T22:59:21.566Z,9.80
2018-12-21T23:01:49.059Z,9.70
2018-12-21T23:04:16.540Z,9.60
2018-12-21T23:06:44.009Z,9.60
2018-12-21T23:09:11.533Z,9.50
2018-12-21T23:11:39.106Z,9.40
2018-12-21T23:14:06.670Z,9.40
2018-12-21T23:16:34.164Z,9.30
2018-12-21T23:19:01.711Z,9.30
2018-12-21T23:21:29.266Z,9.30
2018-12-21T23:23:56.839Z,9.30
2018-12-21T23:26:24.326Z,9.30
2018-12-21T23:28:51.818Z,9.30
2018-12-21T23:31:19.285Z,9.30
2018-12-21T23:33:46.755Z,9.30
2018-12-21T23:36:14.218Z,9.30
2018-12-21T23:38:41.763Z,9.30
2018-12-21T23:41:09.322Z,9.40
2018-12-21T23:43:43.298Z,9.40
2018-12-21T23:46:06.500Z,9.40
2018-12-21T23:48:34.049Z,9.40
2018-12-21T23:51:01.621Z,9.50
2018-12-21T23:53:29.168Z,9.50
2018-12-21T23:55:56.734Z,9.50
2018-12-21T23:58:24.295Z,9.50
